Time;durP1;ratioP1;P1;durP2;ratioP2;P2;SDS_P1;SDS_P2;PMS_P1;PMS_P2;Temp;Humidity;BMP_temperature;BMP_pressure;BME280_temperature;BME280_humidity;BME280_pressure;Samples;Min_cycle;Max_cycle;Signal;HPM_P1;HPM_P2
2023/12/22 00:01:22;;;;;;;4.38;4.18;;;;;;;2.37;100.00;99302.22;6069671;23;20101;-73
2023/12/22 00:03:49;;;;;;;3.28;3.17;;;;;;;3.59;100.00;99511.34;6123200;23;20042;-73
2023/12/22 00:06:16;;;;;;;2.95;2.85;;;;;;;3.90;100.00;99554.13;6099048;23;20021;-73
2023/12/22 00:08:42;;;;;;;3.03;2.88;;;;;;;4.05;100.00;99562.16;6118505;23;20037;-74
2023/12/22 00:11:09;;;;;;;2.90;2.80;;;;;;;3.55;100.00;99457.06;6096331;23;20171;-74
2023/12/22 00:13:35;;;;;;;4.53;4.32;;;;;;;4.14;100.00;99533.22;6119866;23;20096;-73
2023/12/22 00:16:02;;;;;;;2.88;2.78;;;;;;;4.24;100.00;99544.88;6080993;23;20078;-72
2023/12/22 00:18:29;;;;;;;2.80;2.70;;;;;;;3.89;100.00;99452.97;6065898;23;20036;-73
2023/12/22 00:20:55;;;;;;;2.75;2.65;;;;;;;4.17;100.00;99478.56;6127587;23;20287;-73
2023/12/22 00:23:22;;;;;;;4.53;4.13;;;;;;;4.46;100.00;99551.69;6061849;23;20656;-73
2023/12/22 00:25:48;;;;;;;2.97;2.88;;;;;;;4.36;100.00;99497.56;6124904;23;20025;-73
2023/12/22 00:28:15;;;;;;;3.10;3.00;;;;;;;4.28;100.00;99462.47;6085688;23;20404;-75
2023/12/22 00:30:41;;;;;;;3.65;3.45;;;;;;;4.72;100.00;99501.13;6103174;23;20029;-74
2023/12/22 00:33:08;;;;;;;3.58;3.38;;;;;;;4.83;100.00;99513.59;6080694;23;20026;-74
2023/12/22 00:35:35;;;;;;;3.80;3.60;;;;;;;4.85;100.00;99510.03;6105737;23;20265;-75
2023/12/22 00:38:02;;;;;;;3.00;2.90;;;;;;;4.88;100.00;99455.28;6090464;23;20045;-74
2023/12/22 00:40:29;;;;;;;3.15;3.05;;;;;;;4.91;100.00;99446.47;6116654;23;20084;-73
2023/12/22 00:42:55;;;;;;;3.40;3.20;;;;;;;4.83;100.00;99422.63;6094864;23;20490;-75
2023/12/22 00:45:21;;;;;;;4.38;4.18;;;;;;;5.04;100.00;99444.97;6119673;23;20029;-75
2023/12/22 00:47:48;;;;;;;3.00;2.90;;;;;;;5.17;100.00;99445.19;6090061;23;20052;-75
2023/12/22 00:50:15;;;;;;;6.43;6.00;;;;;;;5.19;100.00;99445.94;6122349;23;20026;-77
2023/12/22 00:52:41;;;;;;;3.30;3.10;;;;;;;5.16;100.00;99448.72;6094298;23;20272;-75
2023/12/22 00:55:08;;;;;;;3.17;3.08;;;;;;;5.11;100.00;99453.31;6115360;23;20189;-71
2023/12/22 00:57:34;;;;;;;4.07;3.88;;;;;;;5.22;100.00;99461.41;6063892;23;20135;-74
2023/12/22 01:00:01;;;;;;;2.90;2.80;;;;;;;4.88;100.00;99431.06;6123474;23;20187;-73
2023/12/22 01:02:27;;;;;;;4.50;3.33;;;;;;;5.36;100.00;99502.34;6105693;23;20030;-73
2023/12/22 01:04:54;;;;;;;3.50;3.30;;;;;;;4.02;100.00;99302.72;6116995;23;20159;-73
2023/12/22 01:07:20;;;;;;;3.72;3.58;;;;;;;5.26;100.00;99509.78;6089798;23;20398;-73
2023/12/22 01:09:47;;;;;;;3.08;2.97;;;;;;;4.89;100.00;99443.97;6112432;23;20006;-73
2023/12/22 01:12:13;;;;;;;3.20;3.10;;;;;;;5.17;100.00;99489.41;6093735;23;20484;-74
2023/12/22 01:14:40;;;;;;;2.97;2.88;;;;;;;5.26;100.00;99514.13;6124342;23;20025;-73
2023/12/22 01:17:07;;;;;;;3.13;3.03;;;;;;;5.05;100.00;99420.66;6098655;23;20032;-72
2023/12/22 01:19:33;;;;;;;4.30;4.10;;;;;;;5.18;100.00;99452.91;6130007;23;20030;-75
2023/12/22 01:22:00;;;;;;;3.10;3.00;;;;;;;5.13;100.00;99435.84;6096875;23;20088;-73
2023/12/22 01:24:26;;;;;;;3.25;3.15;;;;;;;5.25;100.00;99455.22;6118781;23;20021;-72
2023/12/22 01:26:53;;;;;;;3.95;3.75;;;;;;;4.76;100.00;99383.09;6091183;23;20046;-73
2023/12/22 01:29:19;;;;;;;4.18;4.00;;;;;;;4.53;100.00;99350.44;6112397;23;20024;-72
2023/12/22 01:31:46;;;;;;;3.08;2.97;;;;;;;4.80;100.00;99418.44;6070468;23;20081;-73
2023/12/22 01:34:12;;;;;;;3.50;3.30;;;;;;;5.27;100.00;99536.63;6125263;23;20330;-74
2023/12/22 01:36:39;;;;;;;3.28;3.08;;;;;;;5.26;100.00;99511.53;6031522;23;20022;-73
2023/12/22 01:39:05;;;;;;;3.20;3.10;;;;;;;4.97;100.00;99501.63;6126082;23;20112;-74
2023/12/22 01:41:35;;;;;;;3.80;3.67;;;;;;;5.10;100.00;99522.69;6086063;23;20712;-74
2023/12/22 01:44:01;;;;;;;2.95;2.85;;;;;;;5.14;100.00;99519.00;6120955;23;20039;-72
2023/12/22 01:46:28;;;;;;;3.83;3.35;;;;;;;4.92;100.00;99488.00;6094581;23;20045;-73
2023/12/22 01:48:54;;;;;;;3.17;3.08;;;;;;;5.15;100.00;99519.84;6124107;23;20026;-75
2023/12/22 01:51:21;;;;;;;5.72;5.43;;;;;;;5.08;100.00;99515.88;6082346;23;20015;-72
2023/12/22 01:53:50;;;;;;;4.43;3.33;;;;;;;5.17;100.00;99531.88;6129660;23;20153;-74
2023/12/22 01:56:16;;;;;;;4.00;3.65;;;;;;;4.99;100.00;99506.75;6093919;23;20025;-74
2023/12/22 01:58:43;;;;;;;3.55;3.25;;;;;;;4.70;100.00;99476.97;6112812;23;20026;-73
2023/12/22 02:01:09;;;;;;;3.20;3.10;;;;;;;5.06;100.00;99531.53;6056640;23;20084;-75
2023/12/22 02:03:36;;;;;;;3.20;3.10;;;;;;;3.91;100.00;99340.41;6097156;23;20605;-73
2023/12/22 02:06:04;;;;;;;2.92;2.83;;;;;;;4.99;100.00;99535.34;6093446;23;20053;-74
2023/12/22 02:08:34;;;;;;;2.92;2.83;;;;;;;4.99;100.00;99549.22;6126873;23;20018;-73
2023/12/22 02:11:01;;;;;;;3.60;3.47;;;;;;;4.99;100.00;99553.53;6094547;23;20017;-72
2023/12/22 02:13:28;;;;;;;4.53;4.28;;;;;;;4.70;100.00;99510.75;6125362;23;20025;-72
2023/12/22 02:16:08;;;;;;;3.00;2.90;;;;;;;4.88;100.00;99556.66;6091155;23;20056;-73
2023/12/22 02:18:42;;;;;;;3.10;3.00;;;;;;;5.02;100.00;99584.63;6064968;23;20026;-74
2023/12/22 02:21:08;;;;;;;3.97;3.78;;;;;;;4.94;100.00;99592.78;6122717;23;20033;-74
2023/12/22 02:23:35;;;;;;;4.25;4.05;;;;;;;4.52;100.00;99538.44;6060704;23;20406;-73
2023/12/22 02:26:10;;;;;;;3.03;2.92;;;;;;;4.58;100.00;99535.53;6119422;23;20021;-72
2023/12/22 02:28:39;;;;;;;3.45;3.25;;;;;;;4.49;100.00;99556.75;6067095;23;20624;-72
2023/12/22 02:31:14;;;;;;;3.28;3.17;;;;;;;5.11;100.00;99633.59;6126642;23;20021;-73
2023/12/22 02:33:44;;;;;;;3.95;3.75;;;;;;;5.13;100.00;99629.16;6089566;23;20022;-75
2023/12/22 02:36:12;;;;;;;3.00;2.90;;;;;;;5.21;100.00;99613.19;6129905;23;20092;-73
2023/12/22 02:38:41;;;;;;;3.33;3.20;;;;;;;5.12;100.00;99585.03;6095823;23;20547;-74
2023/12/22 02:41:08;;;;;;;3.58;3.42;;;;;;;5.13;100.00;99592.75;6118956;23;20425;-74
2023/12/22 02:43:35;;;;;;;4.55;4.35;;;;;;;5.17;100.00;99617.72;6093813;23;20460;-74
2023/12/22 02:46:02;;;;;;;4.32;3.92;;;;;;;5.19;100.00;99602.88;6066497;23;20021;-73
2023/12/22 02:48:28;;;;;;;4.05;3.85;;;;;;;4.58;100.00;99505.19;6099646;23;20037;-73
2023/12/22 02:50:55;;;;;;;3.65;3.45;;;;;;;4.53;100.00;99494.19;6123552;23;20009;-75
2023/12/22 02:53:21;;;;;;;4.65;4.45;;;;;;;4.84;100.00;99538.69;6091841;23;20010;-73
2023/12/22 02:55:50;;;;;;;3.50;3.35;;;;;;;5.16;100.00;99568.34;6124502;23;20679;-73
2023/12/22 02:58:17;;;;;;;3.33;3.22;;;;;;;4.85;100.00;99533.44;6089706;23;20472;-74
2023/12/22 03:00:43;;;;;;;3.30;3.20;;;;;;;4.98;100.00;99581.31;6124193;23;20037;-74
2023/12/22 03:03:09;;;;;;;3.50;3.30;;;;;;;4.87;100.00;99582.72;6096849;23;20026;-74
2023/12/22 03:05:36;;;;;;;3.10;3.00;;;;;;;4.21;100.00;99482.69;6117363;23;20464;-74
2023/12/22 03:08:02;;;;;;;3.45;3.30;;;;;;;4.60;100.00;99565.72;6095430;23;20105;-74
2023/12/22 03:10:30;;;;;;;4.97;3.65;;;;;;;3.99;100.00;99488.84;6119484;23;20486;-73
2023/12/22 03:12:56;;;;;;;3.20;3.10;;;;;;;4.73;100.00;99594.63;6096307;23;20010;-74
2023/12/22 03:15:23;;;;;;;4.90;4.60;;;;;;;4.68;100.00;99591.38;6091168;23;20028;-76
2023/12/22 03:17:49;;;;;;;4.35;4.05;;;;;;;2.93;100.00;99330.06;6096716;23;20020;-74
2023/12/22 03:20:16;;;;;;;3.20;3.10;;;;;;;3.75;100.00;99471.78;6122402;23;20150;-75
2023/12/22 03:22:43;;;;;;;3.17;3.08;;;;;;;4.51;100.00;99614.66;6099470;23;20064;-73
2023/12/22 03:25:09;;;;;;;8.18;3.15;;;;;;;4.08;100.00;99551.66;6121524;23;20021;-74
2023/12/22 03:27:36;;;;;;;4.45;4.18;;;;;;;4.46;100.00;99611.44;6086414;23;20271;-75
2023/12/22 03:30:03;;;;;;;3.50;3.30;;;;;;;4.46;100.00;99622.69;6106157;23;20025;-74
2023/12/22 03:32:32;;;;;;;3.40;3.30;;;;;;;4.60;100.00;99633.28;6077911;23;20018;-72
2023/12/22 03:34:58;;;;;;;3.78;3.47;;;;;;;4.67;100.00;99635.63;6092208;23;20016;-72
2023/12/22 03:37:25;;;;;;;8.63;4.88;;;;;;;4.82;100.00;99641.91;6120794;23;20348;-73
2023/12/22 03:39:51;;;;;;;3.30;3.20;;;;;;;5.12;100.00;99634.44;6092422;23;20266;-73
2023/12/22 03:42:18;;;;;;;2.95;2.85;;;;;;;5.30;100.00;99617.13;6127062;23;20396;-74
2023/12/22 03:44:44;;;;;;;3.50;3.30;;;;;;;5.39;100.00;99598.44;6065254;23;20405;-73
2023/12/22 03:47:11;;;;;;;3.38;3.20;;;;;;;5.52;100.00;99576.13;6121296;23;20094;-74
2023/12/22 03:49:39;;;;;;;4.60;3.47;;;;;;;5.55;100.00;99530.88;6091613;23;20021;-73
2023/12/22 03:52:06;;;;;;;2.97;2.88;;;;;;;5.04;100.00;99428.53;6120659;23;20025;-71
2023/12/22 03:54:32;;;;;;;4.13;3.72;;;;;;;5.76;100.00;99518.56;6064121;23;20046;-73
2023/12/22 03:56:59;;;;;;;4.13;3.92;;;;;;;5.45;100.00;99438.59;6118689;23;20220;-73
2023/12/22 03:59:27;;;;;;;9.68;5.65;;;;;;;5.77;100.00;99442.13;6059177;23;20307;-74
2023/12/22 04:01:55;;;;;;;3.65;3.50;;;;;;;6.02;100.00;99418.28;6100284;23;20014;-72
2023/12/22 04:04:22;;;;;;;4.18;3.85;;;;;;;5.82;100.00;99325.59;6096534;23;20138;-72
2023/12/22 04:06:50;;;;;;;3.20;3.10;;;;;;;6.02;100.00;99339.31;6092301;23;20091;-74
2023/12/22 04:09:16;;;;;;;4.80;3.67;;;;;;;5.44;100.00;99190.59;6089561;23;20076;-74
2023/12/22 04:11:42;;;;;;;3.45;3.10;;;;;;;6.01;100.00;99234.28;6121347;23;20029;-73
2023/12/22 04:14:09;;;;;;;3.20;3.10;;;;;;;6.06;100.00;99221.03;6088870;23;20041;-74
2023/12/22 04:16:38;;;;;;;5.38;3.95;;;;;;;5.48;100.00;99090.63;6111716;23;20522;-74
2023/12/22 04:19:05;;;;;;;3.60;3.40;;;;;;;5.65;100.00;99068.00;6089564;23;20518;-73
2023/12/22 04:21:36;;;;;;;3.70;3.53;;;;;;;6.09;100.00;99129.69;6119544;23;21205;-73
2023/12/22 04:24:03;;;;;;;3.25;3.15;;;;;;;5.36;100.00;99028.91;6097501;23;20036;-74
2023/12/22 04:26:29;;;;;;;4.15;3.95;;;;;;;5.95;100.00;99144.38;6113639;23;20285;-72
2023/12/22 04:28:55;;;;;;;3.50;3.30;;;;;;;6.03;100.00;99188.16;6090616;23;20128;-75
2023/12/22 04:31:22;;;;;;;11.23;4.75;;;;;;;6.03;100.00;99223.78;6122259;23;20523;-72
2023/12/22 04:33:48;;;;;;;3.97;3.75;;;;;;;6.14;100.00;99248.28;6098807;23;20422;-73
2023/12/22 04:36:15;;;;;;;4.68;4.15;;;;;;;6.18;100.00;99269.81;6065156;23;20105;-74
2023/12/22 04:38:41;;;;;;;3.92;3.65;;;;;;;6.17;100.00;99239.47;6130593;23;20184;-73
2023/12/22 04:41:08;;;;;;;4.47;4.07;;;;;;;6.09;100.00;99260.72;6093151;23;20028;-75
2023/12/22 04:43:35;;;;;;;5.43;5.13;;;;;;;6.07;100.00;99299.03;6118366;23;20192;-73
2023/12/22 04:46:01;;;;;;;12.68;4.57;;;;;;;6.05;100.00;99302.66;6063110;23;20087;-72
2023/12/22 04:48:28;;;;;;;3.80;3.60;;;;;;;5.97;100.00;99324.78;6113975;23;20016;-74
2023/12/22 04:50:54;;;;;;;3.40;3.30;;;;;;;6.01;100.00;99356.69;6101589;23;20025;-73
2023/12/22 04:53:20;;;;;;;7.85;4.47;;;;;;;5.67;100.00;99316.00;6122509;23;20032;-74
2023/12/22 04:55:47;;;;;;;3.67;3.47;;;;;;;6.10;100.00;99386.59;6097173;23;20085;-74
2023/12/22 04:58:14;;;;;;;3.40;3.20;;;;;;;6.00;100.00;99370.63;6125668;23;20107;-73
2023/12/22 05:00:40;;;;;;;6.93;3.75;;;;;;;5.73;100.00;99284.44;6096938;23;20412;-73
2023/12/22 05:03:07;;;;;;;3.58;3.38;;;;;;;5.88;100.00;99275.78;6128571;23;20013;-73
2023/12/22 05:05:33;;;;;;;5.15;4.90;;;;;;;6.33;100.00;99301.94;6096535;23;20076;-74
2023/12/22 05:08:00;;;;;;;3.60;3.50;;;;;;;6.01;100.00;99225.66;6123119;23;20025;-74
2023/12/22 05:10:26;;;;;;;4.70;4.30;;;;;;;6.65;100.00;99296.66;6093012;23;20025;-74
2023/12/22 05:12:53;;;;;;;3.83;3.63;;;;;;;6.68;100.00;99291.25;6114936;23;20017;-74
2023/12/22 05:15:19;;;;;;;4.28;4.10;;;;;;;5.31;100.00;99078.59;6092256;23;20425;-75
2023/12/22 05:17:46;;;;;;;3.40;3.30;;;;;;;5.00;100.00;99011.88;6124237;23;20025;-74
2023/12/22 05:20:14;;;;;;;3.58;3.33;;;;;;;6.68;100.00;99281.66;6095397;23;20354;-74
2023/12/22 05:22:40;;;;;;;4.20;3.90;;;;;;;6.89;100.00;99281.31;6056208;23;20189;-74
2023/12/22 05:25:09;;;;;;;3.88;3.67;;;;;;;6.78;100.00;99302.81;6115124;23;20074;-73
2023/12/22 05:27:36;;;;;;;4.38;4.18;;;;;;;6.18;100.00;99135.19;6080403;23;20141;-73
2023/12/22 05:30:03;;;;;;;10.40;4.03;;;;;;;6.52;100.00;99145.38;6108070;23;20074;-73
2023/12/22 05:32:30;;;;;;;4.00;3.80;;;;;;;6.76;100.00;99198.63;6094152;23;20219;-73
2023/12/22 05:34:56;;;;;;;4.85;4.55;;;;;;;7.04;100.00;99202.16;6085191;23;20020;-73
2023/12/22 05:37:23;;;;;;;5.45;5.15;;;;;;;6.81;100.00;99112.28;6091043;23;20025;-73
2023/12/22 05:39:49;;;;;;;4.05;3.85;;;;;;;5.31;100.00;98817.63;6122331;23;20124;-74
2023/12/22 05:42:16;;;;;;;10.73;4.15;;;;;;;7.04;100.00;99100.44;6090251;23;20037;-73
2023/12/22 05:44:43;;;;;;;5.60;3.88;;;;;;;7.15;100.00;99110.16;6089351;23;20029;-74
2023/12/22 05:47:10;;;;;;;12.80;4.55;;;;;;;6.56;100.00;98995.69;6089461;23;20253;-74
2023/12/22 05:49:39;;;;;;;4.13;3.92;;;;;;;6.78;100.00;99035.09;6133955;23;20030;-73
2023/12/22 05:52:06;;;;;;;4.10;3.83;;;;;;;7.08;100.00;99120.16;6082409;23;20034;-73
2023/12/22 05:54:32;;;;;;;3.30;3.20;;;;;;;7.22;100.00;99113.22;6116624;23;20283;-74
2023/12/22 05:56:59;;;;;;;4.57;4.38;;;;;;;7.23;100.00;99117.53;6112421;23;20025;-74
2023/12/22 05:59:27;;;;;;;9.10;6.70;;;;;;;7.22;100.00;99121.91;6105285;23;20039;-72
2023/12/22 06:01:54;;;;;;;3.72;3.55;;;;;;;6.80;100.00;99058.47;6113761;23;20017;-74
2023/12/22 06:04:20;;;;;;;3.50;3.30;;;;;;;7.28;100.00;99121.50;6139250;23;20284;-73
2023/12/22 06:06:47;;;;;;;3.90;3.70;;;;;;;6.77;100.00;99029.97;6113663;23;20104;-73
2023/12/22 06:09:14;;;;;;;4.10;3.83;;;;;;;7.28;100.00;99107.63;6142321;23;20013;-73
2023/12/22 06:11:40;;;;;;;3.88;3.67;;;;;;;6.98;100.00;99093.00;6107291;23;20083;-74
2023/12/22 06:14:06;;;;;;;3.67;3.47;;;;;;;7.30;100.00;99144.91;6139704;23;20090;-73
2023/12/22 06:16:33;;;;;;;4.28;4.00;;;;;;;7.32;100.00;99153.47;6108131;23;20396;-74
2023/12/22 06:18:59;;;;;;;3.83;3.63;;;;;;;6.91;100.00;99100.34;6141279;23;20523;-75
2023/12/22 06:21:26;;;;;;;5.68;5.30;;;;;;;7.31;100.00;99139.56;6084093;23;20463;-73
2023/12/22 06:23:53;;;;;;;6.35;4.50;;;;;;;7.30;100.00;99137.06;6138837;23;20518;-72
2023/12/22 06:26:22;;;;;;;3.28;3.17;;;;;;;7.24;100.00;99146.13;6081556;23;20542;-73
2023/12/22 06:28:48;;;;;;;3.60;3.50;;;;;;;7.26;100.00;99167.75;6131561;23;20009;-74
2023/12/22 06:31:20;;;;;;;3.30;3.20;;;;;;;7.22;100.00;99168.88;6112844;23;20037;-73
2023/12/22 06:33:48;;;;;;;4.28;3.97;;;;;;;7.07;100.00;99168.03;6078925;23;20018;-74
2023/12/22 06:36:18;;;;;;;4.50;3.75;;;;;;;6.33;100.00;99093.50;6137332;23;20020;-73
2023/12/22 06:38:46;;;;;;;3.95;3.75;;;;;;;7.32;100.00;99255.25;6112620;23;20017;-72
2023/12/22 06:41:23;;;;;;;10.07;3.97;;;;;;;7.33;100.00;99229.03;6136711;23;20025;-74
2023/12/22 06:43:53;;;;;;;3.80;3.60;;;;;;;7.28;100.00;99238.94;6101975;23;20041;-74
2023/12/22 06:46:27;;;;;;;3.90;3.70;;;;;;;7.33;100.00;99262.13;6136474;23;20025;-75
2023/12/22 06:48:55;;;;;;;4.60;4.30;;;;;;;7.22;100.00;99296.72;6079116;23;20087;-73
2023/12/22 06:51:27;;;;;;;7.15;6.65;;;;;;;7.09;100.00;99282.72;6120813;23;20448;-73
2023/12/22 06:53:57;;;;;;;6.88;4.05;;;;;;;7.30;100.00;99315.34;6094791;23;20026;-73
2023/12/22 06:56:26;;;;;;;3.40;3.30;;;;;;;6.84;100.00;99213.81;6120143;23;20159;-74
2023/12/22 06:58:56;;;;;;;3.53;3.42;;;;;;;7.13;100.00;99285.06;6083200;23;20022;-74
2023/12/22 07:01:33;;;;;;;4.43;4.22;;;;;;;6.70;100.00;99226.84;6115144;23;20036;-76
2023/12/22 07:04:02;;;;;;;4.00;3.80;;;;;;;7.06;100.00;99325.50;6096491;23;20044;-74
2023/12/22 07:06:33;;;;;;;3.72;3.60;;;;;;;6.93;100.00;99270.59;5937979;23;20033;-75
2023/12/22 07:09:11;;;;;;;3.70;3.53;;;;;;;7.03;100.00;99296.97;6071908;23;20050;-75
2023/12/22 07:11:40;;;;;;;4.15;3.85;;;;;;;6.99;100.00;99308.53;6112398;23;20504;-77
2023/12/22 07:14:07;;;;;;;3.30;3.20;;;;;;;7.05;100.00;99354.28;6093127;23;20030;-73
2023/12/22 07:16:35;;;;;;;3.67;3.47;;;;;;;6.59;100.00;99292.63;6113062;23;20193;-74
2023/12/22 07:19:02;;;;;;;4.00;3.80;;;;;;;6.97;100.00;99422.53;6104323;23;20456;-73
2023/12/22 07:21:29;;;;;;;5.07;4.88;;;;;;;6.13;100.00;99322.16;6067657;23;20052;-73
2023/12/22 07:23:55;;;;;;;3.30;3.20;;;;;;;5.98;100.00;99330.81;6098683;23;20441;-75
2023/12/22 07:26:24;;;;;;;3.30;3.15;;;;;;;6.41;100.00;99468.28;6061963;23;20034;-73
2023/12/22 07:28:50;;;;;;;4.07;3.88;;;;;;;5.72;100.00;99451.97;6082671;23;20221;-74
2023/12/22 07:31:19;;;;;;;4.25;4.03;;;;;;;6.42;100.00;99602.88;6114517;23;20033;-75
2023/12/22 07:33:46;;;;;;;16.70;3.88;;;;;;;6.37;100.00;99613.53;6085053;23;20349;-73
2023/12/22 07:36:14;;;;;;;3.42;3.33;;;;;;;6.39;100.00;99622.13;6122944;23;20074;-73
2023/12/22 07:38:40;;;;;;;4.40;4.15;;;;;;;6.01;100.00;99574.59;6072563;23;20025;-74
2023/12/22 07:41:08;;;;;;;5.00;4.32;;;;;;;6.38;100.00;99652.53;6113912;23;20275;-76
2023/12/22 07:43:35;;;;;;;4.55;4.35;;;;;;;5.98;100.00;99594.69;6089617;23;20056;-74
2023/12/22 07:46:02;;;;;;;4.75;4.35;;;;;;;6.31;100.00;99711.09;6095783;23;20414;-73
2023/12/22 07:48:28;;;;;;;4.63;4.25;;;;;;;6.40;100.00;99715.03;6088358;23;20083;-73
2023/12/22 07:50:55;;;;;;;4.35;4.15;;;;;;;6.41;100.00;99721.91;6078377;23;20018;-72
2023/12/22 07:53:22;;;;;;;5.82;5.43;;;;;;;6.58;100.00;99739.31;6105699;23;20029;-73
2023/12/22 07:55:48;;;;;;;4.55;4.25;;;;;;;6.52;100.00;99719.59;6087856;23;20067;-72
2023/12/22 07:58:17;;;;;;;4.32;4.05;;;;;;;6.47;100.00;99697.28;6046963;23;20026;-74
2023/12/22 08:00:43;;;;;;;4.65;4.35;;;;;;;6.43;100.00;99717.47;6110911;23;20023;-74
2023/12/22 08:03:10;;;;;;;4.07;3.88;;;;;;;6.39;100.00;99715.94;6076852;23;20018;-74
2023/12/22 08:05:36;;;;;;;5.70;5.18;;;;;;;6.39;100.00;99713.31;6051858;23;20390;-73
2023/12/22 08:08:03;;;;;;;6.32;3.65;;;;;;;6.08;100.00;99641.09;6121614;23;20461;-72
2023/12/22 08:10:30;;;;;;;3.67;3.47;;;;;;;6.06;100.00;99664.63;6085320;23;20037;-74
2023/12/22 08:12:56;;;;;;;3.40;3.30;;;;;;;6.72;100.00;99736.84;6120476;23;20037;-73
2023/12/22 08:15:23;;;;;;;5.32;5.03;;;;;;;6.53;100.00;99705.63;6088034;23;20441;-73
2023/12/22 08:18:01;;;;;;;4.22;3.92;;;;;;;6.58;100.00;99695.81;6122669;23;20439;-76
2023/12/22 08:20:29;;;;;;;4.03;3.83;;;;;;;6.76;100.00;99677.53;6088905;23;20031;-73
2023/12/22 08:23:02;;;;;;;5.05;4.25;;;;;;;6.47;100.00;99640.78;6090621;23;20626;-74
2023/12/22 08:25:35;;;;;;;4.85;4.65;;;;;;;7.08;100.00;99727.16;6084906;23;20180;-74
2023/12/22 08:28:02;;;;;;;4.15;3.95;;;;;;;7.19;100.00;99738.69;6085967;23;20026;-73
2023/12/22 08:30:28;;;;;;;4.40;4.10;;;;;;;7.10;100.00;99723.53;6114059;23;20030;-73
2023/12/22 08:32:55;;;;;;;4.20;3.90;;;;;;;6.82;100.00;99681.59;6086522;23;20026;-74
2023/12/22 08:35:21;;;;;;;16.42;5.00;;;;;;;6.84;100.00;99688.41;6059431;23;20085;-72
2023/12/22 08:37:48;;;;;;;4.70;4.40;;;;;;;7.03;100.00;99716.13;6076162;23;20026;-73
2023/12/22 08:40:15;;;;;;;4.55;3.80;;;;;;;7.26;100.00;99741.84;6112255;23;20025;-74
2023/12/22 08:42:44;;;;;;;9.65;4.75;;;;;;;7.26;100.00;99723.56;6053840;23;20025;-73
2023/12/22 08:45:10;;;;;;;4.07;3.88;;;;;;;7.34;100.00;99731.81;6111262;23;20378;-74
2023/12/22 08:47:37;;;;;;;4.57;4.18;;;;;;;7.05;100.00;99673.38;6066536;23;20085;-72
2023/12/22 08:50:04;;;;;;;9.65;4.45;;;;;;;6.84;100.00;99630.19;6143288;23;20510;-72
2023/12/22 08:52:31;;;;;;;4.35;4.00;;;;;;;7.49;100.00;99716.22;6103687;23;20182;-74
2023/12/22 08:54:57;;;;;;;3.88;3.67;;;;;;;7.52;100.00;99709.09;6143258;23;20491;-73
2023/12/22 08:57:24;;;;;;;6.03;5.60;;;;;;;7.59;100.00;99696.50;6105797;23;20037;-73
2023/12/22 08:59:51;;;;;;;4.47;4.22;;;;;;;7.53;100.00;99675.97;6129437;23;20017;-74
2023/12/22 09:02:17;;;;;;;8.18;3.80;;;;;;;6.29;100.00;99455.00;6106691;23;20518;-74
2023/12/22 09:04:44;;;;;;;14.43;4.57;;;;;;;7.67;100.00;99676.03;6092028;23;20013;-72
2023/12/22 09:07:10;;;;;;;5.15;3.85;;;;;;;7.76;100.00;99666.84;6109887;23;20083;-72
2023/12/22 09:09:37;;;;;;;4.63;4.32;;;;;;;7.56;100.00;99608.78;6129703;23;20100;-71
2023/12/22 09:12:04;;;;;;;6.68;4.47;;;;;;;7.74;100.00;99629.53;6107750;23;20351;-75
2023/12/22 09:14:31;;;;;;;8.48;4.72;;;;;;;7.45;100.00;99563.31;6057055;23;20037;-74
2023/12/22 09:16:57;;;;;;;4.80;4.35;;;;;;;7.65;100.00;99580.44;6136418;23;20319;-74
2023/12/22 09:19:24;;;;;;;8.38;5.95;;;;;;;7.73;100.00;99613.00;6101050;23;20033;-74
2023/12/22 09:21:51;;;;;;;6.43;4.50;;;;;;;7.84;100.00;99619.38;6137004;23;20036;-72
2023/12/22 09:24:17;;;;;;;3.40;3.30;;;;;;;7.77;100.00;99600.63;6116310;23;20518;-72
2023/12/22 09:26:43;;;;;;;11.00;4.45;;;;;;;7.93;100.00;99601.41;6141938;23;20278;-72
2023/12/22 09:29:10;;;;;;;18.42;3.90;;;;;;;5.31;100.00;99173.97;6110359;23;20036;-73
2023/12/22 09:31:36;;;;;;;3.47;3.35;;;;;;;7.18;100.00;99488.31;6138010;23;20063;-73
2023/12/22 09:34:03;;;;;;;8.40;3.88;;;;;;;8.03;100.00;99603.47;6109154;23;20261;-75
2023/12/22 09:36:30;;;;;;;7.70;5.38;;;;;;;8.03;100.00;99598.25;6084176;23;20728;-74
2023/12/22 09:38:56;;;;;;;3.83;3.63;;;;;;;7.92;100.00;99578.00;6113217;23;20111;-73
2023/12/22 09:41:23;;;;;;;6.88;6.13;;;;;;;8.06;100.00;99578.00;6137639;23;20020;-74
2023/12/22 09:43:50;;;;;;;4.18;3.97;;;;;;;8.13;100.00;99584.53;6113196;23;20006;-73
2023/12/22 09:46:20;;;;;;;3.72;3.58;;;;;;;8.12;100.00;99561.13;6078794;23;20457;-73
2023/12/22 09:48:49;;;;;;;4.05;3.78;;;;;;;7.85;100.00;99521.81;6136268;23;20041;-72
2023/12/22 09:51:17;;;;;;;4.05;3.75;;;;;;;8.05;100.00;99513.63;6095677;23;20191;-74
2023/12/22 09:53:45;;;;;;;11.93;4.32;;;;;;;8.09;100.00;99524.72;6118930;23;20308;-72
2023/12/22 09:56:12;;;;;;;4.55;4.30;;;;;;;8.25;100.00;99545.53;6095559;23;20076;-71
2023/12/22 09:58:39;;;;;;;3.72;3.53;;;;;;;8.29;100.00;99537.41;6096156;23;20030;-73
2023/12/22 10:01:07;;;;;;;10.82;3.92;;;;;;;7.53;100.00;99423.56;6093962;23;20033;-73
2023/12/22 10:03:34;;;;;;;4.95;4.65;;;;;;;7.65;100.00;99444.66;6122020;23;20029;-72
2023/12/22 10:06:01;;;;;;;3.80;3.60;;;;;;;8.37;100.00;99576.16;6089924;23;20592;-70
2023/12/22 10:08:28;;;;;;;3.80;3.60;;;;;;;8.32;100.00;99550.31;6112152;23;20059;-73
2023/12/22 10:10:56;;;;;;;8.30;3.85;;;;;;;7.50;100.00;99433.38;6091728;23;20441;-72
2023/12/22 10:13:22;;;;;;;5.95;5.43;;;;;;;8.33;100.00;99557.19;6093807;23;20156;-71
2023/12/22 10:15:50;;;;;;;4.13;3.92;;;;;;;8.22;100.00;99548.31;6112866;23;20092;-71
2023/12/22 10:18:17;;;;;;;3.67;3.47;;;;;;;8.28;100.00;99561.88;6090244;23;20092;-73
2023/12/22 10:20:44;;;;;;;4.65;4.30;;;;;;;8.30;100.00;99577.44;6123821;23;20501;-72
2023/12/22 10:23:11;;;;;;;4.30;3.90;;;;;;;8.24;100.00;99581.28;6098618;23;20376;-72
2023/12/22 10:25:40;;;;;;;3.50;3.40;;;;;;;8.31;100.00;99602.66;6101029;23;20310;-73
2023/12/22 10:28:10;;;;;;;8.68;4.28;;;;;;;7.92;100.00;99544.88;6075171;23;20095;-72
2023/12/22 10:30:38;;;;;;;6.93;3.92;;;;;;;8.30;100.00;99625.38;6122415;23;20032;-73
2023/12/22 10:33:05;;;;;;;3.90;3.60;;;;;;;8.27;100.00;99630.75;6070820;23;20018;-73
2023/12/22 10:35:32;;;;;;;4.88;4.68;;;;;;;8.12;100.00;99618.63;6043233;23;20461;-74
2023/12/22 10:37:59;;;;;;;3.85;3.67;;;;;;;7.85;100.00;99576.66;6095207;23;20089;-74
2023/12/22 10:40:30;;;;;;;3.70;3.50;;;;;;;8.39;100.00;99655.31;6114081;23;20213;-73
2023/12/22 10:42:58;;;;;;;4.78;4.40;;;;;;;8.33;100.00;99661.75;6085262;23;20041;-72
2023/12/22 10:45:24;;;;;;;11.05;5.03;;;;;;;8.25;100.00;99666.59;6112707;23;20508;-73
2023/12/22 10:47:52;;;;;;;5.05;4.05;;;;;;;8.27;100.00;99672.59;6095136;23;20013;-72
2023/12/22 10:50:20;;;;;;;3.47;3.35;;;;;;;7.95;100.00;99622.22;6119722;23;20055;-73
2023/12/22 10:52:51;;;;;;;5.07;4.30;;;;;;;8.36;100.00;99689.50;6088729;23;20474;-72
2023/12/22 10:55:17;;;;;;;3.60;3.40;;;;;;;7.93;100.00;99616.25;6120612;23;20103;-72
2023/12/22 10:57:46;;;;;;;3.83;3.63;;;;;;;8.36;100.00;99695.56;6083731;23;20764;-72
2023/12/22 11:00:16;;;;;;;9.60;5.03;;;;;;;8.39;100.00;99690.16;6115128;23;20068;-73
2023/12/22 11:02:46;;;;;;;3.97;3.78;;;;;;;8.37;100.00;99692.00;6089094;23;20059;-75
2023/12/22 11:05:16;;;;;;;6.55;3.95;;;;;;;8.28;100.00;99666.44;6107677;23;20405;-71
2023/12/22 11:07:48;;;;;;;4.28;3.88;;;;;;;8.34;100.00;99650.38;6054385;23;20022;-73
2023/12/22 11:10:24;;;;;;;4.00;3.80;;;;;;;7.97;100.00;99594.22;6099318;23;20364;-74
2023/12/22 11:12:51;;;;;;;3.97;3.78;;;;;;;8.49;100.00;99690.47;6085435;23;20038;-72
2023/12/22 11:15:19;;;;;;;3.85;3.65;;;;;;;8.61;100.00;99678.44;6107960;23;20044;-74
2023/12/22 11:17:48;;;;;;;3.92;3.72;;;;;;;8.56;100.00;99651.75;6062107;23;20252;-72
2023/12/22 11:20:16;;;;;;;6.68;4.03;;;;;;;8.57;100.00;99622.88;6118480;23;20017;-74
2023/12/22 11:22:43;;;;;;;3.80;3.67;;;;;;;8.70;100.00;99649.13;6092536;23;20087;-72
2023/12/22 11:25:10;;;;;;;5.03;4.45;;;;;;;8.76;100.00;99656.59;6099248;23;20037;-72
2023/12/22 11:27:44;;;;;;;3.95;3.75;;;;;;;7.90;100.00;99504.94;6088336;23;20022;-73
2023/12/22 11:30:12;;;;;;;3.83;3.63;;;;;;;8.77;100.00;99646.97;6108016;23;20053;-74
2023/12/22 11:32:39;;;;;;;4.00;3.80;;;;;;;8.83;100.00;99641.34;6084969;23;20037;-74
2023/12/22 11:35:07;;;;;;;3.42;3.33;;;;;;;8.95;100.00;99663.31;6075286;23;20295;-73